Time;durP1;ratioP1;P1;durP2;ratioP2;P2;SDS_P1;SDS_P2;PMS_P1;PMS_P2;Temp;Humidity;BMP_temperature;BMP_pressure;BME280_temperature;BME280_humidity;BME280_pressure;Samples;Min_cycle;Max_cycle;Signal;HPM_P1;HPM_P2
2023/11/11 00:24:55;;;;;;;24.23;17.70;;;7.70;99.90;;;;;;4817949;28;20209;-84
2023/11/11 00:55:13;;;;;;;25.00;17.20;;;7.60;99.90;;;;;;4805152;28;20207;-86
2023/11/11 01:25:38;;;;;;;26.70;20.17;;;7.60;99.90;;;;;;4748563;29;20248;-86
2023/11/11 01:50:27;;;;;;;34.20;22.43;;;7.30;99.90;;;;;;4754431;29;20544;-86
2023/11/11 02:11:12;;;;;;;31.93;22.37;;;7.40;99.90;;;;;;4765295;29;20215;-85
2023/11/11 02:36:45;;;;;;;28.20;19.63;;;7.40;99.90;;;;;;4883427;28;20599;-85
2023/11/11 02:41:12;;;;;;;29.40;20.60;;;7.30;99.90;;;;;;4815038;29;20658;-85
2023/11/11 03:01:50;;;;;;;26.70;21.17;;;7.30;99.90;;;;;;4745596;29;20300;-86
2023/11/11 03:26:53;;;;;;;29.33;21.67;;;7.40;99.90;;;;;;4729268;29;20352;-84
2023/11/11 03:52:42;;;;;;;31.23;22.83;;;7.30;99.90;;;;;;4779375;29;20215;-85
2023/11/11 04:33:16;;;;;;;30.47;22.97;;;7.10;99.90;;;;;;4846793;29;20355;-90
2023/11/11 04:58:30;;;;;;;30.37;22.63;;;6.90;99.90;;;;;;4830456;29;20280;-87
2023/11/11 05:18:43;;;;;;;29.77;21.90;;;6.80;99.90;;;;;;4697466;30;20296;-88
2023/11/11 05:39:06;;;;;;;30.87;21.97;;;6.70;99.90;;;;;;5903155;22;20234;-88
2023/11/11 06:09:06;;;;;;;32.00;21.30;;;6.60;99.90;;;;;;6102539;22;20617;31
2023/11/11 06:34:10;;;;;;;31.10;23.17;;;6.80;99.90;;;;;;4920139;28;20640;-87
2023/11/11 06:54:51;;;;;;;38.00;23.67;;;7.00;99.90;;;;;;4739754;29;20522;-87
2023/11/11 07:05:04;;;;;;;40.73;28.40;;;7.10;99.90;;;;;;5919450;23;20244;-89
2023/11/11 07:45:40;;;;;;;37.40;23.63;;;7.10;99.90;;;;;;4874213;28;20425;-87
2023/11/11 08:10:59;;;;;;;41.23;24.57;;;7.10;99.90;;;;;;4839063;28;20873;-87
2023/11/11 08:31:07;;;;;;;33.27;21.63;;;7.50;99.90;;;;;;4825690;28;20521;-87
2023/11/11 09:01:38;;;;;;;28.00;19.67;;;7.90;99.90;;;;;;4856121;28;20260;-87
2023/11/11 09:32:02;;;;;;;29.93;20.77;;;8.50;99.90;;;;;;4723570;29;20284;-86
2023/11/11 09:57:33;;;;;;;29.77;20.73;;;8.20;99.90;;;;;;4734835;29;20221;-86
2023/11/11 10:32:48;;;;;;;34.63;23.77;;;8.70;99.90;;;;;;4748165;29;20227;-87
2023/11/11 11:13:04;;;;;;;43.90;27.70;;;8.50;99.90;;;;;;4616701;30;20751;-86
2023/11/11 11:38:57;;;;;;;40.63;26.13;;;8.70;99.90;;;;;;4677926;29;20515;-87
2023/11/11 12:09:17;;;;;;;42.53;28.07;;;9.00;99.90;;;;;;4729124;29;20220;-85
2023/11/11 12:34:41;;;;;;;52.20;32.40;;;9.10;99.90;;;;;;4729088;29;20274;-85
2023/11/11 12:54:32;;;;;;;52.63;31.37;;;9.00;99.90;;;;;;4587842;30;20512;-87
2023/11/11 13:25:28;;;;;;;55.23;34.13;;;8.80;99.90;;;;;;4695021;29;20323;-85
2023/11/11 13:55:45;;;;;;;42.73;25.73;;;8.80;99.90;;;;;;4788265;29;20221;-86
2023/11/11 14:21:19;;;;;;;44.43;26.60;;;8.50;99.90;;;;;;4727653;29;20350;-87
2023/11/11 14:25:38;;;;;;;43.70;25.27;;;8.70;99.90;;;;;;4719181;29;20655;-87
2023/11/11 14:51:38;;;;;;;35.40;23.07;;;8.60;99.90;;;;;;4671327;29;20280;-85
2023/11/11 15:11:25;;;;;;;47.07;28.40;;;8.50;99.90;;;;;;4777793;28;20600;-86
2023/11/11 15:37:01;;;;;;;35.17;22.97;;;8.40;99.90;;;;;;4838395;28;20275;-86
2023/11/11 15:57:36;;;;;;;49.97;28.47;;;8.30;99.90;;;;;;4850629;28;20201;-86
2023/11/11 16:22:33;;;;;;;50.43;27.37;;;7.20;99.90;;;;;;4861627;28;20465;-87
2023/11/11 16:42:55;;;;;;;66.93;35.97;;;7.40;99.90;;;;;;4712421;29;20287;-85
2023/11/11 17:13:39;;;;;;;42.50;26.20;;;7.70;99.90;;;;;;4752933;29;20405;-86
2023/11/11 17:17:59;;;;;;;43.40;26.33;;;7.60;99.90;;;;;;4671260;30;20659;-88
2023/11/11 17:38:57;;;;;;;39.53;25.47;;;7.30;99.90;;;;;;4729909;29;20611;-86
2023/11/11 18:04:06;;;;;;;35.57;24.17;;;7.50;99.90;;;;;;4723882;29;20241;-86
2023/11/11 18:29:37;;;;;;;41.27;25.70;;;7.50;99.90;;;;;;4578145;30;20380;-88
2023/11/11 19:20:25;;;;;;;37.93;25.10;;;7.50;99.90;;;;;;4689493;29;20363;-88
2023/11/11 19:55:45;;;;;;;39.57;26.87;;;7.80;99.90;;;;;;4748443;29;20361;-86
2023/11/11 20:20:31;;;;;;;52.93;33.60;;;7.90;99.90;;;;;;4681994;29;20608;-87
2023/11/11 20:50:58;;;;;;;54.27;31.93;;;7.80;99.90;;;;;;4600315;30;20423;-84
2023/11/11 21:06:45;;;;;;;54.30;32.97;;;7.80;99.90;;;;;;4632957;30;20426;-86
2023/11/11 21:57:19;;;;;;;71.93;36.93;;;8.00;99.90;;;;;;4702800;29;20367;-84
2023/11/11 22:22:52;;;;;;;66.33;36.93;;;8.00;99.90;;;;;;4895885;28;20266;-87
2023/11/11 22:53:18;;;;;;;72.33;40.63;;;7.90;99.90;;;;;;4890009;28;20187;-85
2023/11/11 23:18:37;;;;;;;100.03;50.83;;;7.90;99.90;;;;;;4737973;29;20236;-87
2023/11/11 23:38:59;;;;;;;113.07;56.17;;;7.60;99.90;;;;;;4688867;29;20236;-85
2023/11/11 23:43:18;;;;;;;118.13;56.77;;;7.60;99.90;;;;;;4685534;29;20444;-86
